createdAt,value
2022-10-10T00:00:13.800Z,99971.72
2022-10-10T00:00:45.339Z,99971.56
2022-10-10T00:01:16.870Z,99971.56
2022-10-10T00:01:48.361Z,99968.34
2022-10-10T00:02:19.928Z,99968.50
2022-10-10T00:02:51.697Z,99968.50
2022-10-10T00:03:23.525Z,99968.91
2022-10-10T00:03:55.076Z,99967.19
2022-10-10T00:04:26.707Z,99970.31
2022-10-10T00:04:58.240Z,99963.41
2022-10-10T00:05:29.870Z,99966.09
2022-10-10T00:06:01.547Z,99963.56
2022-10-10T00:06:33.745Z,99970.88
2022-10-10T00:07:05.244Z,99963.97
2022-10-10T00:07:36.762Z,99956.38
2022-10-10T00:08:08.285Z,99957.25
2022-10-10T00:08:39.832Z,99953.72
2022-10-10T00:09:11.307Z,99961.59
2022-10-10T00:09:42.887Z,99957.41
2022-10-10T00:10:14.433Z,99957.41
2022-10-10T00:10:46.066Z,99959.91
2022-10-10T00:11:18.094Z,99952.06
2022-10-10T00:11:49.610Z,99961.31
2022-10-10T00:12:21.183Z,99953.88
2022-10-10T00:12:52.879Z,99954.88
2022-10-10T00:13:24.767Z,99959.34
2022-10-10T00:13:56.284Z,99955.44
2022-10-10T00:14:32.308Z,99961.31
2022-10-10T00:15:04.366Z,99950.66
2022-10-10T00:15:35.881Z,99959.34
2022-10-10T00:16:07.411Z,99954.88
2022-10-10T00:16:38.968Z,99954.00
2022-10-10T00:17:10.488Z,99962.16
2022-10-10T00:17:42.062Z,99959.63
2022-10-10T00:18:13.599Z,99959.34
2022-10-10T00:18:45.129Z,99957.97
2022-10-10T00:19:16.660Z,99944.63
2022-10-10T00:19:48.156Z,99958.09
2022-10-10T00:20:19.813Z,99956.41
2022-10-10T00:20:51.709Z,99950.09
2022-10-10T00:21:23.156Z,99954.28
2022-10-10T00:21:54.731Z,99950.50
2022-10-10T00:23:09.150Z,99955.00
2022-10-10T00:23:40.599Z,99962.72
2022-10-10T00:24:11.883Z,99956.81
2022-10-10T00:24:43.323Z,99956.38
2022-10-10T00:25:14.871Z,99957.97
2022-10-10T00:25:46.273Z,99958.81
2022-10-10T00:26:19.265Z,99961.72
2022-10-10T00:26:50.849Z,99962.72
2022-10-10T00:27:22.242Z,99957.41
2022-10-10T00:27:53.614Z,99961.03
2022-10-10T00:28:25.006Z,99955.56
2022-10-10T00:28:56.415Z,99967.81
2022-10-10T00:29:27.747Z,99959.06
2022-10-10T00:29:59.619Z,99953.88
2022-10-10T00:30:31.086Z,99953.88
2022-10-10T00:31:02.542Z,99959.47
2022-10-10T00:31:33.891Z,99960.19
2022-10-10T00:32:05.265Z,99958.66
2022-10-10T00:32:36.775Z,99952.34
2022-10-10T00:33:08.150Z,99955.00
2022-10-10T00:33:39.524Z,99963.00
2022-10-10T00:34:10.859Z,99954.16
2022-10-10T00:34:42.264Z,99959.06
2022-10-10T00:35:13.677Z,99959.34
2022-10-10T00:35:45.088Z,99957.69
2022-10-10T00:36:16.444Z,99958.22
2022-10-10T00:36:47.749Z,99955.69
2022-10-10T00:37:19.063Z,99957.16
2022-10-10T00:37:50.508Z,99957.16
2022-10-10T00:38:21.896Z,99957.97
2022-10-10T00:38:53.285Z,99951.81
2022-10-10T00:39:24.644Z,99948.25
2022-10-10T00:39:56.020Z,99957.69
2022-10-10T00:40:27.391Z,99956.53
2022-10-10T00:40:58.918Z,99957.41
2022-10-10T00:41:30.226Z,99958.22
2022-10-10T00:42:01.546Z,99952.34
2022-10-10T00:42:32.858Z,99950.66
2022-10-10T00:43:04.257Z,99960.34
2022-10-10T00:43:35.612Z,99957.41
2022-10-10T00:44:08.162Z,99949.66
2022-10-10T00:44:39.964Z,99952.88
2022-10-10T00:45:29.845Z,99952.06
2022-10-10T00:46:01.191Z,99960.19
2022-10-10T00:46:32.607Z,99959.34
2022-10-10T00:47:03.990Z,99956.53
2022-10-10T00:47:35.381Z,99956.81
2022-10-10T00:48:08.390Z,99955.84
2022-10-10T00:48:40.707Z,99958.25
2022-10-10T00:49:15.577Z,99952.34
2022-10-10T00:49:47.045Z,99955.56
2022-10-10T00:50:18.512Z,99953.47
2022-10-10T00:50:50.920Z,99959.63
2022-10-10T00:51:22.306Z,99952.63
2022-10-10T00:51:54.093Z,99959.94
2022-10-10T00:52:25.455Z,99951.22
2022-10-10T00:52:56.843Z,99955.44
2022-10-10T00:53:35.016Z,99958.78
2022-10-10T00:54:07.636Z,99956.13
2022-10-10T00:54:39.079Z,99961.59
2022-10-10T00:55:11.065Z,99955.44
2022-10-10T00:55:42.466Z,99954.59
2022-10-10T00:56:13.946Z,99957.53
2022-10-10T00:56:46.641Z,99957.69
2022-10-10T00:57:18.039Z,99960.75
2022-10-10T00:57:49.493Z,99959.63
2022-10-10T00:58:20.829Z,99953.47
2022-10-10T00:58:52.568Z,99954.28
2022-10-10T00:59:24.068Z,99953.47
2022-10-10T00:59:55.448Z,99954.28
2022-10-10T01:00:26.894Z,99955.97
2022-10-10T01:00:58.310Z,99946.28
2022-10-10T01:01:29.766Z,99950.66
2022-10-10T01:02:01.152Z,99949.97
2022-10-10T01:02:32.470Z,99954.47
2022-10-10T01:03:03.846Z,99955.44
2022-10-10T01:03:35.284Z,99948.69
2022-10-10T01:04:06.693Z,99949.25
2022-10-10T01:04:45.455Z,99949.97
2022-10-10T01:05:17.277Z,99954.28
2022-10-10T01:05:48.755Z,99950.94
2022-10-10T01:06:20.137Z,99951.78
2022-10-10T01:06:51.511Z,99949.41
2022-10-10T01:07:24.037Z,99950.25
2022-10-10T01:07:55.431Z,99950.94
2022-10-10T01:08:26.782Z,99948.94
2022-10-10T01:08:58.162Z,99940.81
2022-10-10T01:09:29.484Z,99944.63
2022-10-10T01:10:02.915Z,99948.94
2022-10-10T01:10:35.847Z,99949.41
2022-10-10T01:11:20.343Z,99945.59
2022-10-10T01:11:52.333Z,99945.88
2022-10-10T01:12:29.552Z,99952.91
2022-10-10T01:13:09.791Z,99945.59
2022-10-10T01:13:41.132Z,99949.81
2022-10-10T01:14:31.289Z,99950.94
2022-10-10T01:15:08.582Z,99950.09
2022-10-10T01:15:47.042Z,99951.22
2022-10-10T01:16:29.678Z,99948.13
2022-10-10T01:17:02.733Z,99949.53
2022-10-10T01:17:45.226Z,99953.19
2022-10-10T01:18:35.184Z,99956.53
2022-10-10T01:19:29.474Z,99953.75
2022-10-10T01:20:09.945Z,99947.56
2022-10-10T01:20:41.232Z,99952.91
2022-10-10T01:21:14.431Z,99944.22
2022-10-10T01:21:45.830Z,99943.22
2022-10-10T01:22:36.057Z,99938.00
2022-10-10T01:23:10.272Z,99945.88
2022-10-10T01:23:55.987Z,99945.88
2022-10-10T01:24:30.094Z,99945.88
2022-10-10T01:25:07.188Z,99940.81
2022-10-10T01:25:44.343Z,99937.88
2022-10-10T01:26:15.676Z,99939.03
2022-10-10T01:27:05.804Z,99944.22
2022-10-10T01:27:44.626Z,99935.81
2022-10-10T01:28:28.763Z,99937.19
2022-10-10T01:29:12.002Z,99942.53
2022-10-10T01:30:01.947Z,99941.53
2022-10-10T01:30:33.421Z,99944.34
2022-10-10T01:31:05.578Z,99947.84
2022-10-10T01:31:38.528Z,99951.06
2022-10-10T01:32:30.178Z,99945.03
2022-10-10T01:33:01.507Z,99940.53
2022-10-10T01:33:36.226Z,99942.22
2022-10-10T01:34:11.629Z,99946.88
2022-10-10T01:34:48.135Z,99944.06
2022-10-10T01:35:28.614Z,99945.59
2022-10-10T01:36:03.600Z,99944.22
2022-10-10T01:36:37.715Z,99944.22
2022-10-10T01:37:19.028Z,99936.91
2022-10-10T01:37:59.239Z,99950.53
2022-10-10T01:38:41.876Z,99949.53
2022-10-10T01:39:14.256Z,99947.72
2022-10-10T01:39:49.245Z,99942.53
2022-10-10T01:40:29.249Z,99945.88
2022-10-10T01:41:03.313Z,99949.81
2022-10-10T01:41:36.995Z,99936.63
2022-10-10T01:42:14.960Z,99946.31
2022-10-10T01:42:46.299Z,99940.00
2022-10-10T01:43:17.720Z,99939.16
2022-10-10T01:43:55.478Z,99940.81
2022-10-10T01:44:26.828Z,99937.75
2022-10-10T01:44:58.187Z,99937.47
2022-10-10T01:45:29.672Z,99936.38
2022-10-10T01:46:08.706Z,99936.38
2022-10-10T01:46:40.056Z,99937.75
2022-10-10T01:47:11.726Z,99940.41
2022-10-10T01:47:43.144Z,99942.25
2022-10-10T01:48:14.460Z,99937.75
2022-10-10T01:48:46.395Z,99933.28
2022-10-10T01:49:17.796Z,99929.59
2022-10-10T01:49:49.520Z,99933.81
2022-10-10T01:50:21.228Z,99937.31
2022-10-10T01:50:55.319Z,99935.81
2022-10-10T01:51:45.057Z,99929.59
2022-10-10T01:52:20.739Z,99927.94
2022-10-10T01:52:57.773Z,99925.13
2022-10-10T01:53:58.585Z,99925.13
2022-10-10T01:54:29.937Z,99930.47
2022-10-10T01:55:19.229Z,99934.66
2022-10-10T01:56:07.498Z,99932.28
2022-10-10T01:56:49.053Z,99925.41
2022-10-10T01:57:22.086Z,99921.88
2022-10-10T01:58:11.594Z,99921.75
2022-10-10T01:58:47.387Z,99913.88
2022-10-10T01:59:18.740Z,99919.09
2022-10-10T01:59:55.998Z,99926.25
2022-10-10T02:00:27.380Z,99918.09
2022-10-10T02:00:58.840Z,99917.13
2022-10-10T02:01:32.769Z,99917.41
2022-10-10T02:02:19.715Z,99915.59
2022-10-10T02:03:09.502Z,99913.59
2022-10-10T02:03:43.254Z,99910.78
2022-10-10T02:04:34.474Z,99908.13
2022-10-10T02:05:05.810Z,99913.75
2022-10-10T02:05:39.572Z,99905.75
2022-10-10T02:06:19.436Z,99912.78
2022-10-10T02:06:52.057Z,99913.59
2022-10-10T02:07:26.483Z,99909.97
2022-10-10T02:07:58.537Z,99912.63
2022-10-10T02:08:36.702Z,99905.47
2022-10-10T02:09:09.532Z,99909.97
2022-10-10T02:09:41.020Z,99914.47
2022-10-10T02:10:12.498Z,99909.97
2022-10-10T02:10:44.703Z,99913.59
2022-10-10T02:11:16.173Z,99908.56
2022-10-10T02:11:47.618Z,99909.41
2022-10-10T02:12:18.973Z,99908.41
2022-10-10T02:12:50.544Z,99905.88
2022-10-10T02:13:22.300Z,99904.78
2022-10-10T02:13:57.781Z,99901.97
2022-10-10T02:14:30.905Z,99905.47
2022-10-10T02:15:04.886Z,99908.41
2022-10-10T02:15:45.952Z,99906.63
2022-10-10T02:16:27.156Z,99907.44
2022-10-10T02:16:58.559Z,99905.47
2022-10-10T02:17:29.960Z,99907.44
2022-10-10T02:18:01.347Z,99902.94
2022-10-10T02:18:32.912Z,99901.28
2022-10-10T02:19:05.991Z,99900.41
2022-10-10T02:19:37.731Z,99901.41
2022-10-10T02:20:09.367Z,99897.59
2022-10-10T02:20:40.735Z,99893.97
2022-10-10T02:21:12.140Z,99899.59
2022-10-10T02:21:43.502Z,99893.41
2022-10-10T02:22:14.944Z,99895.09
2022-10-10T02:22:46.366Z,99898.75
2022-10-10T02:23:17.939Z,99897.75
2022-10-10T02:23:50.344Z,99899.44
2022-10-10T02:24:22.359Z,99893.41
2022-10-10T02:24:53.736Z,99894.94
2022-10-10T02:25:27.226Z,99897.47
2022-10-10T02:25:58.624Z,99900.28
2022-10-10T02:26:29.977Z,99895.81
2022-10-10T02:27:03.574Z,99898.47
2022-10-10T02:27:57.918Z,99900.41
2022-10-10T02:28:29.308Z,99895.94
2022-10-10T02:29:10.685Z,99900.56
2022-10-10T02:29:42.103Z,99893.56
2022-10-10T02:30:13.575Z,99895.94
2022-10-10T02:30:45.510Z,99899.31
2022-10-10T02:31:18.441Z,99890.03
2022-10-10T02:31:51.306Z,99899.72
2022-10-10T02:32:28.563Z,99900.41
2022-10-10T02:33:02.197Z,99890.91
2022-10-10T02:33:37.053Z,99899.72
2022-10-10T02:34:17.855Z,99897.75
2022-10-10T02:34:50.174Z,99890.91
2022-10-10T02:35:25.356Z,99892.28
2022-10-10T02:35:56.710Z,99898.31
2022-10-10T02:36:28.068Z,99892.00
2022-10-10T02:37:00.208Z,99891.88
2022-10-10T02:37:31.612Z,99888.38
2022-10-10T02:38:02.965Z,99892.69
2022-10-10T02:38:34.355Z,99890.91
2022-10-10T02:39:05.704Z,99890.31
2022-10-10T02:39:37.760Z,99888.22
2022-10-10T02:40:09.299Z,99888.09
2022-10-10T02:40:40.735Z,99888.22
2022-10-10T02:41:13.913Z,99888.09
2022-10-10T02:41:45.454Z,99890.03
2022-10-10T02:42:17.166Z,99887.38
2022-10-10T02:42:49.376Z,99893.41
2022-10-10T02:43:21.012Z,99891.72
2022-10-10T02:43:52.411Z,99882.91
2022-10-10T02:44:23.746Z,99888.38
2022-10-10T02:44:55.156Z,99891.88
2022-10-10T02:45:26.546Z,99886.69
2022-10-10T02:45:58.094Z,99887.66
2022-10-10T02:46:29.491Z,99889.06
2022-10-10T02:47:00.856Z,99888.66
2022-10-10T02:47:32.190Z,99889.19
2022-10-10T02:48:03.661Z,99887.38
2022-10-10T02:48:35.097Z,99883.88
2022-10-10T02:49:09.040Z,99881.88
2022-10-10T02:49:40.414Z,99881.06
2022-10-10T02:50:11.787Z,99881.88
2022-10-10T02:50:43.120Z,99886.38
2022-10-10T02:51:14.504Z,99892.41
2022-10-10T02:51:45.891Z,99886.53
2022-10-10T02:52:17.303Z,99891.72
2022-10-10T02:52:49.019Z,99897.34
2022-10-10T02:53:20.597Z,99891.19
2022-10-10T02:53:51.968Z,99886.38
2022-10-10T02:54:23.344Z,99889.88
2022-10-10T02:54:54.789Z,99881.19
2022-10-10T02:55:26.218Z,99888.09
2022-10-10T02:55:57.610Z,99888.91
2022-10-10T02:56:29.080Z,99884.41
2022-10-10T02:57:00.480Z,99883.44
2022-10-10T02:57:31.822Z,99886.09
2022-10-10T02:58:03.225Z,99881.75
2022-10-10T02:58:34.557Z,99886.09
2022-10-10T02:59:05.913Z,99888.09
2022-10-10T02:59:37.216Z,99876.56
2022-10-10T03:00:08.760Z,99877.41
2022-10-10T03:00:40.098Z,99880.50
2022-10-10T03:01:11.655Z,99881.06
2022-10-10T03:01:43.015Z,99882.91
2022-10-10T03:02:14.361Z,99878.38
2022-10-10T03:02:45.738Z,99872.91
2022-10-10T03:03:17.117Z,99878.38
2022-10-10T03:03:48.549Z,99874.91
2022-10-10T03:04:19.903Z,99876.41
2022-10-10T03:04:51.423Z,99871.38
2022-10-10T03:05:22.874Z,99877.69
2022-10-10T03:05:54.247Z,99875.72
2022-10-10T03:06:25.607Z,99878.53
2022-10-10T03:06:56.930Z,99873.88
2022-10-10T03:07:28.250Z,99877.28
2022-10-10T03:07:59.645Z,99875.31
2022-10-10T03:08:30.982Z,99870.53
2022-10-10T03:09:02.914Z,99879.38
2022-10-10T03:09:34.248Z,99874.03
2022-10-10T03:10:05.761Z,99865.06
2022-10-10T03:10:37.147Z,99869.84
2022-10-10T03:11:08.466Z,99866.03
2022-10-10T03:11:39.844Z,99873.06
2022-10-10T03:12:11.179Z,99877.41
2022-10-10T03:12:42.533Z,99873.06
2022-10-10T03:13:13.848Z,99865.88
2022-10-10T03:13:45.281Z,99867.03
2022-10-10T03:14:16.745Z,99868.69
2022-10-10T03:14:48.141Z,99875.72
2022-10-10T03:15:19.465Z,99872.22
2022-10-10T03:15:50.884Z,99868.56
2022-10-10T03:16:22.306Z,99872.09
2022-10-10T03:16:53.655Z,99868.41
2022-10-10T03:17:25.009Z,99870.41
2022-10-10T03:17:56.405Z,99874.03
2022-10-10T03:18:27.828Z,99875.72
2022-10-10T03:18:59.139Z,99874.91
2022-10-10T03:19:30.508Z,99861.69
2022-10-10T03:20:01.857Z,99866.03
2022-10-10T03:20:33.314Z,99874.03
2022-10-10T03:21:04.766Z,99870.00
2022-10-10T03:21:36.230Z,99874.63
2022-10-10T03:22:07.538Z,99871.50
2022-10-10T03:22:38.912Z,99870.53
2022-10-10T03:23:10.363Z,99873.34
2022-10-10T03:23:41.735Z,99866.47
2022-10-10T03:24:13.071Z,99872.66
2022-10-10T03:24:44.384Z,99869.84
2022-10-10T03:25:15.774Z,99867.03
2022-10-10T03:25:47.127Z,99875.03
2022-10-10T03:26:18.560Z,99868.97
2022-10-10T03:26:49.946Z,99870.69
2022-10-10T03:27:21.316Z,99869.69
2022-10-10T03:27:52.729Z,99875.19
2022-10-10T03:28:24.148Z,99871.78
2022-10-10T03:28:55.598Z,99875.03
2022-10-10T03:29:26.972Z,99869.84
2022-10-10T03:29:58.350Z,99865.50
2022-10-10T03:30:29.742Z,99875.19
2022-10-10T03:31:01.064Z,99867.03
2022-10-10T03:31:32.471Z,99862.97
2022-10-10T03:32:06.870Z,99869.84
2022-10-10T03:32:40.414Z,99863.50
2022-10-10T03:33:11.810Z,99862.69
2022-10-10T03:33:43.179Z,99870.97
2022-10-10T03:34:14.478Z,99867.03
2022-10-10T03:34:45.869Z,99867.47
2022-10-10T03:35:17.302Z,99868.97
2022-10-10T03:35:48.736Z,99871.50
2022-10-10T03:36:20.170Z,99863.66
2022-10-10T03:36:51.609Z,99872.38
2022-10-10T03:37:23.003Z,99861.69
2022-10-10T03:37:54.368Z,99866.19
2022-10-10T03:38:25.693Z,99867.03
2022-10-10T03:38:57.044Z,99862.53
2022-10-10T03:39:28.473Z,99866.19
2022-10-10T03:39:59.830Z,99873.19
2022-10-10T03:40:31.232Z,99870.69
2022-10-10T03:41:02.587Z,99866.19
2022-10-10T03:41:33.935Z,99862.53
2022-10-10T03:42:05.463Z,99862.81
2022-10-10T03:42:36.812Z,99870.97
2022-10-10T03:43:08.615Z,99862.00
2022-10-10T03:43:39.995Z,99865.34
2022-10-10T03:44:11.362Z,99868.84
2022-10-10T03:44:42.783Z,99869.69
2022-10-10T03:45:14.182Z,99862.81
2022-10-10T03:45:45.594Z,99864.66
2022-10-10T03:46:16.974Z,99871.66
2022-10-10T03:46:48.319Z,99868.00
2022-10-10T03:47:19.749Z,99870.97
2022-10-10T03:47:51.184Z,99872.94
2022-10-10T03:48:22.687Z,99874.31
2022-10-10T03:48:54.086Z,99869.84
2022-10-10T03:49:25.447Z,99877.69
2022-10-10T03:49:56.784Z,99863.38
2022-10-10T03:50:28.194Z,99867.88
2022-10-10T03:51:30.813Z,99870.84
2022-10-10T03:52:02.108Z,99867.59
2022-10-10T03:52:33.491Z,99864.78
2022-10-10T03:53:04.963Z,99867.31
2022-10-10T03:53:36.318Z,99865.50
2022-10-10T03:54:07.649Z,99868.00
2022-10-10T03:54:39.126Z,99869.84
2022-10-10T03:55:10.431Z,99862.00
2022-10-10T03:55:42.091Z,99868.97
2022-10-10T03:56:13.407Z,99864.38
2022-10-10T03:56:44.734Z,99867.88
2022-10-10T03:57:16.108Z,99868.97
2022-10-10T03:57:47.486Z,99871.66
2022-10-10T03:58:22.938Z,99861.69
2022-10-10T03:58:55.274Z,99876.84
2022-10-10T03:59:26.619Z,99876.16
2022-10-10T03:59:57.992Z,99869.13
2022-10-10T04:00:29.367Z,99862.81
2022-10-10T04:01:03.201Z,99863.66
2022-10-10T04:01:34.699Z,99870.00
2022-10-10T04:02:06.063Z,99864.38
2022-10-10T04:02:37.576Z,99863.50
2022-10-10T04:03:08.941Z,99868.84
2022-10-10T04:03:40.312Z,99865.19
2022-10-10T04:04:11.666Z,99857.34
2022-10-10T04:04:43.031Z,99870.81
2022-10-10T04:05:14.420Z,99863.97
2022-10-10T04:05:45.857Z,99863.78
2022-10-10T04:06:17.295Z,99861.13
2022-10-10T04:06:48.667Z,99865.50
2022-10-10T04:07:20.010Z,99863.66
2022-10-10T04:07:51.339Z,99860.84
2022-10-10T04:08:22.962Z,99864.66
2022-10-10T04:08:54.358Z,99860.28
2022-10-10T04:09:25.837Z,99854.69
2022-10-10T04:09:57.173Z,99868.00
2022-10-10T04:10:28.530Z,99860.84
2022-10-10T04:10:59.867Z,99862.69
2022-10-10T04:11:31.303Z,99856.38
2022-10-10T04:12:02.671Z,99858.19
2022-10-10T04:12:34.121Z,99855.78
2022-10-10T04:13:05.587Z,99857.50
2022-10-10T04:13:37.140Z,99861.13
2022-10-10T04:14:08.535Z,99851.31
2022-10-10T04:14:39.867Z,99860.28
2022-10-10T04:15:11.190Z,99859.47
2022-10-10T04:15:42.486Z,99854.00
2022-10-10T04:16:13.943Z,99856.66
2022-10-10T04:16:45.290Z,99850.47
2022-10-10T04:17:16.839Z,99852.44
2022-10-10T04:17:48.227Z,99852.59
2022-10-10T04:18:19.602Z,99861.13
2022-10-10T04:18:51.033Z,99854.97
2022-10-10T04:19:22.491Z,99855.50
2022-10-10T04:19:53.845Z,99853.84
2022-10-10T04:20:25.353Z,99851.19
2022-10-10T04:20:56.683Z,99854.00
2022-10-10T04:21:28.040Z,99854.97
2022-10-10T04:21:59.379Z,99851.47
2022-10-10T04:22:30.759Z,99848.50
2022-10-10T04:23:02.083Z,99857.34
2022-10-10T04:23:33.431Z,99849.50
2022-10-10T04:24:04.878Z,99855.09
2022-10-10T04:24:36.198Z,99857.63
2022-10-10T04:25:08.059Z,99847.97
2022-10-10T04:25:39.570Z,99850.63
2022-10-10T04:26:10.901Z,99854.00
2022-10-10T04:26:42.253Z,99849.34
2022-10-10T04:27:13.669Z,99851.47
2022-10-10T04:27:45.051Z,99852.28
2022-10-10T04:28:16.476Z,99852.16
2022-10-10T04:28:47.935Z,99852.00
2022-10-10T04:29:19.321Z,99849.34
2022-10-10T04:29:50.656Z,99851.31
2022-10-10T04:30:21.973Z,99846.28
2022-10-10T04:30:53.367Z,99848.25
2022-10-10T04:31:24.825Z,99846.28
2022-10-10T04:31:56.202Z,99846.41
2022-10-10T04:32:27.542Z,99844.88
2022-10-10T04:32:58.934Z,99846.41
2022-10-10T04:33:30.398Z,99842.78
2022-10-10T04:34:01.721Z,99846.13
2022-10-10T04:34:33.112Z,99848.66
2022-10-10T04:35:04.643Z,99845.13
2022-10-10T04:35:37.352Z,99839.97
2022-10-10T04:36:08.800Z,99841.63
2022-10-10T04:36:40.207Z,99840.81
2022-10-10T04:37:11.615Z,99838.81
2022-10-10T04:37:43.051Z,99844.28
2022-10-10T04:38:14.485Z,99840.66
2022-10-10T04:38:45.875Z,99831.66
2022-10-10T04:39:17.315Z,99836.00
2022-10-10T04:39:48.671Z,99835.19
2022-10-10T04:40:25.465Z,99838.69
2022-10-10T04:40:57.899Z,99834.19
2022-10-10T04:41:29.308Z,99831.09
2022-10-10T04:42:00.694Z,99831.81
2022-10-10T04:42:32.027Z,99838.13
2022-10-10T04:43:03.468Z,99838.13
2022-10-10T04:43:34.873Z,99831.25
2022-10-10T04:44:06.165Z,99830.97
2022-10-10T04:44:37.520Z,99837.44
2022-10-10T04:45:09.088Z,99838.28
2022-10-10T04:45:40.545Z,99831.97
2022-10-10T04:46:11.884Z,99831.97
2022-10-10T04:46:43.294Z,99831.09
2022-10-10T04:47:14.732Z,99830.28
2022-10-10T04:47:46.135Z,99836.44
2022-10-10T04:48:17.513Z,99838.97
2022-10-10T04:48:48.879Z,99833.50
2022-10-10T04:49:20.296Z,99838.97
2022-10-10T04:49:51.708Z,99831.97
2022-10-10T04:50:23.356Z,99829.59
2022-10-10T04:50:55.284Z,99832.81
2022-10-10T04:51:26.691Z,99831.81
2022-10-10T04:51:58.045Z,99838.97
2022-10-10T04:52:29.407Z,99838.13
2022-10-10T04:53:00.814Z,99840.13
2022-10-10T04:53:32.161Z,99848.25
2022-10-10T04:54:03.696Z,99837.59
2022-10-10T04:54:35.106Z,99835.75
2022-10-10T04:55:06.619Z,99841.22
2022-10-10T04:55:37.972Z,99843.59
2022-10-10T04:56:09.423Z,99844.28
2022-10-10T04:56:40.788Z,99838.97
2022-10-10T04:57:12.129Z,99841.63
2022-10-10T04:57:43.452Z,99837.31
2022-10-10T04:58:14.844Z,99835.63
2022-10-10T04:58:46.320Z,99833.91
2022-10-10T04:59:17.648Z,99836.28
2022-10-10T04:59:48.975Z,99838.00
2022-10-10T05:00:20.360Z,99838.97
2022-10-10T05:00:54.681Z,99840.94
2022-10-10T05:01:26.083Z,99838.28
2022-10-10T05:02:01.541Z,99838.28
2022-10-10T05:02:33.397Z,99835.63
2022-10-10T05:03:04.832Z,99832.94
2022-10-10T05:03:36.205Z,99834.63
2022-10-10T05:04:07.616Z,99832.81
2022-10-10T05:04:38.978Z,99835.63
2022-10-10T05:05:10.425Z,99832.81
2022-10-10T05:05:41.822Z,99834.47
2022-10-10T05:06:13.212Z,99835.31
2022-10-10T05:06:44.556Z,99830.28
2022-10-10T05:07:16.229Z,99839.97
2022-10-10T05:07:50.669Z,99833.63
2022-10-10T05:08:24.403Z,99833.91
2022-10-10T05:08:55.742Z,99833.91
2022-10-10T05:09:27.112Z,99826.63
2022-10-10T05:09:58.430Z,99831.25
2022-10-10T05:10:29.859Z,99829.31
2022-10-10T05:11:01.372Z,99831.97
2022-10-10T05:11:32.698Z,99831.97
2022-10-10T05:12:04.199Z,99831.09
2022-10-10T05:12:35.564Z,99836.72
2022-10-10T05:13:07.142Z,99837.44
2022-10-10T05:13:38.507Z,99833.09
2022-10-10T05:14:09.898Z,99829.31
2022-10-10T05:14:45.851Z,99829.31
2022-10-10T05:15:19.229Z,99830.28
2022-10-10T05:15:51.020Z,99834.78
2022-10-10T05:16:22.497Z,99829.31
2022-10-10T05:16:53.827Z,99828.59
2022-10-10T05:17:25.152Z,99831.41
2022-10-10T05:17:56.495Z,99835.91
2022-10-10T05:18:27.845Z,99837.59
2022-10-10T05:18:59.179Z,99834.19
2022-10-10T05:19:30.537Z,99828.72
2022-10-10T05:20:01.858Z,99830.41
2022-10-10T05:20:33.428Z,99842.06
2022-10-10T05:21:04.972Z,99830.28
2022-10-10T05:21:36.330Z,99835.63
2022-10-10T05:22:07.729Z,99836.44
2022-10-10T05:22:39.153Z,99828.59
2022-10-10T05:23:10.476Z,99836.44
2022-10-10T05:23:41.816Z,99830.41
2022-10-10T05:24:13.168Z,99836.44
2022-10-10T05:24:44.577Z,99834.78
2022-10-10T05:25:15.950Z,99830.13
2022-10-10T05:25:50.599Z,99838.28
2022-10-10T05:26:21.916Z,99835.63
2022-10-10T05:26:53.291Z,99836.59
2022-10-10T05:27:24.770Z,99831.41
2022-10-10T05:27:56.140Z,99842.78
2022-10-10T05:28:27.557Z,99834.19
2022-10-10T05:28:59.059Z,99830.84
2022-10-10T05:29:30.386Z,99833.22
2022-10-10T05:30:01.733Z,99834.78
2022-10-10T05:30:33.077Z,99840.13
2022-10-10T05:31:04.492Z,99835.63
2022-10-10T05:31:35.830Z,99839.09
2022-10-10T05:32:10.358Z,99839.97
2022-10-10T05:32:42.842Z,99841.22
2022-10-10T05:33:14.274Z,99830.56
2022-10-10T05:33:45.569Z,99838.28
2022-10-10T05:34:16.893Z,99833.91
2022-10-10T05:34:48.270Z,99833.91
2022-10-10T05:35:19.589Z,99834.91
2022-10-10T05:35:50.939Z,99833.91
2022-10-10T05:36:22.320Z,99833.38
2022-10-10T05:36:53.682Z,99835.34
2022-10-10T05:37:25.011Z,99835.91
2022-10-10T05:37:56.488Z,99832.25
2022-10-10T05:38:27.884Z,99829.59
2022-10-10T05:38:59.204Z,99834.91
2022-10-10T05:39:30.609Z,99834.91
2022-10-10T05:40:02.068Z,99837.72
2022-10-10T05:40:33.450Z,99834.91
2022-10-10T05:41:04.883Z,99824.00
2022-10-10T05:41:36.212Z,99830.72
2022-10-10T05:42:07.535Z,99828.88
2022-10-10T05:42:38.863Z,99824.41
2022-10-10T05:43:10.206Z,99826.94
2022-10-10T05:43:41.573Z,99825.22
2022-10-10T05:44:12.971Z,99829.59
2022-10-10T05:44:44.326Z,99827.75
2022-10-10T05:45:15.740Z,99827.75
2022-10-10T05:45:47.222Z,99830.56
2022-10-10T05:46:18.605Z,99829.72
2022-10-10T05:46:49.935Z,99825.22
2022-10-10T05:47:25.396Z,99830.41
2022-10-10T05:47:59.059Z,99826.94
2022-10-10T05:48:30.514Z,99833.09
2022-10-10T05:49:01.859Z,99826.94
2022-10-10T05:49:33.218Z,99832.41
2022-10-10T05:50:04.807Z,99825.38
2022-10-10T05:50:36.841Z,99822.56
2022-10-10T05:51:08.218Z,99831.41
2022-10-10T05:51:39.558Z,99830.84
2022-10-10T05:52:10.909Z,99829.72
2022-10-10T05:52:42.374Z,99837.72
2022-10-10T05:53:13.753Z,99827.34
2022-10-10T05:53:45.148Z,99828.03
2022-10-10T05:54:16.557Z,99831.53
2022-10-10T05:54:47.912Z,99832.53
2022-10-10T05:55:19.291Z,99828.19
2022-10-10T05:55:50.675Z,99824.25
2022-10-10T05:56:22.003Z,99825.22
2022-10-10T05:56:53.469Z,99828.72
2022-10-10T05:57:24.847Z,99834.19
2022-10-10T05:57:56.278Z,99833.22
2022-10-10T05:58:27.660Z,99827.91
2022-10-10T05:58:59.090Z,99829.16
2022-10-10T05:59:30.556Z,99829.88
2022-10-10T06:00:01.938Z,99825.50
2022-10-10T06:00:33.324Z,99833.78
2022-10-10T06:01:04.959Z,99830.84
2022-10-10T06:01:36.438Z,99829.47
2022-10-10T06:02:07.825Z,99828.47
2022-10-10T06:02:39.338Z,99828.31
2022-10-10T06:03:11.113Z,99835.09
2022-10-10T06:03:42.465Z,99836.06
2022-10-10T06:04:14.024Z,99834.09
2022-10-10T06:04:45.437Z,99831.41
2022-10-10T06:05:16.893Z,99828.47
2022-10-10T06:05:50.596Z,99828.47
2022-10-10T06:06:22.608Z,99835.63
2022-10-10T06:06:54.023Z,99833.78
2022-10-10T06:07:36.095Z,99835.50
2022-10-10T06:08:16.741Z,99828.03
2022-10-10T06:08:48.106Z,99834.50
2022-10-10T06:09:19.475Z,99840.53
2022-10-10T06:09:50.816Z,99835.34
2022-10-10T06:10:22.177Z,99839.53
2022-10-10T06:10:53.544Z,99837.16
2022-10-10T06:11:24.932Z,99841.78
2022-10-10T06:11:56.283Z,99831.13
2022-10-10T06:12:27.679Z,99844.47
2022-10-10T06:12:59.057Z,99843.50
2022-10-10T06:13:30.399Z,99845.16
2022-10-10T06:14:01.709Z,99847.81
2022-10-10T06:14:33.054Z,99841.66
2022-10-10T06:15:04.692Z,99842.66
2022-10-10T06:15:36.017Z,99841.78
2022-10-10T06:16:07.448Z,99838.44
2022-10-10T06:16:38.795Z,99838.44
2022-10-10T06:17:10.122Z,99839.13
2022-10-10T06:17:41.533Z,99840.69
2022-10-10T06:18:12.904Z,99840.53
2022-10-10T06:18:44.435Z,99841.50
2022-10-10T06:19:15.776Z,99838.69
2022-10-10T06:19:47.176Z,99839.53
2022-10-10T06:20:18.473Z,99835.06
2022-10-10T06:20:49.853Z,99838.84
2022-10-10T06:21:21.219Z,99842.66
2022-10-10T06:21:52.632Z,99837.31
2022-10-10T06:22:24.030Z,99843.50
2022-10-10T06:24:34.378Z,99839.81
2022-10-10T06:25:39.954Z,99833.94
2022-10-10T06:35:49.009Z,99843.78